Time;durP1;ratioP1;P1;durP2;ratioP2;P2;SDS_P1;SDS_P2;PMS_P1;PMS_P2;Temp;Humidity;BMP_temperature;BMP_pressure;BME280_temperature;BME280_humidity;BME280_pressure;Samples;Min_cycle;Max_cycle;Signal;HPM_P1;HPM_P2
2023/12/22 00:02:18;;;;;;;33.60;31.10;;;;;;;1.51;100.00;99549.00;5006667;28;20133;-74
2023/12/22 00:04:45;;;;;;;36.85;34.03;;;;;;;1.47;100.00;99539.91;4997306;28;20049;-74
2023/12/22 00:07:13;;;;;;;32.53;30.23;;;;;;;1.68;100.00;99542.66;5009204;28;20058;-73
2023/12/22 00:09:40;;;;;;;32.78;30.48;;;;;;;1.46;100.00;99533.84;5009421;28;20503;-73
2023/12/22 00:12:07;;;;;;;33.08;30.88;;;;;;;1.06;100.00;99537.53;5010062;28;20049;-74
2023/12/22 00:14:34;;;;;;;34.60;31.75;;;;;;;1.54;100.00;99538.19;5013162;28;20119;-73
2023/12/22 00:17:01;;;;;;;33.90;31.40;;;;;;;1.51;100.00;99539.38;5007846;28;20045;-74
2023/12/22 00:19:28;;;;;;;32.25;29.85;;;;;;;0.96;100.00;99539.56;5021446;28;20050;-73
2023/12/22 00:21:55;;;;;;;32.78;30.27;;;;;;;0.93;100.00;99534.69;5021340;28;20443;-73
2023/12/22 00:24:23;;;;;;;32.95;30.55;;;;;;;1.07;100.00;99528.72;5010963;28;20057;-73
2023/12/22 00:26:50;;;;;;;30.80;28.50;;;;;;;0.82;100.00;99530.69;5008131;28;20042;-74
2023/12/22 00:29:17;;;;;;;33.38;30.88;;;;;;;0.65;100.00;99524.72;5013913;28;20053;-74
2023/12/22 00:31:44;;;;;;;34.67;32.03;;;;;;;0.57;100.00;99530.78;5010613;28;20041;-74
2023/12/22 00:34:13;;;;;;;33.50;31.00;;;;;;;1.26;100.00;99520.41;4997810;28;20446;-73
2023/12/22 00:36:42;;;;;;;32.30;29.90;;;;;;;0.70;100.00;99519.78;5008604;28;20058;-74
2023/12/22 00:39:11;;;;;;;29.83;27.63;;;;;;;0.67;100.00;99514.91;5015738;28;20447;-73
2023/12/22 00:41:40;;;;;;;32.33;30.05;;;;;;;1.32;100.00;99505.81;5005775;28;20053;-73
2023/12/22 00:44:06;;;;;;;28.58;26.20;;;;;;;1.24;100.00;99501.47;5017090;28;20046;-72
2023/12/22 00:46:33;;;;;;;31.00;28.60;;;;;;;1.21;100.00;99493.97;5006044;28;20448;-74
2023/12/22 00:49:02;;;;;;;32.20;29.73;;;;;;;1.49;100.00;99485.59;5012998;28;20045;-74
2023/12/22 00:51:29;;;;;;;30.30;27.98;;;;;;;1.30;100.00;99465.94;5007110;28;20062;-72
2023/12/22 00:53:56;;;;;;;30.20;27.83;;;;;;;0.51;100.00;99466.13;5007816;28;20061;-73
2023/12/22 00:56:23;;;;;;;30.40;27.90;;;;;;;0.38;100.00;99468.50;5016635;28;20496;-73
2023/12/22 00:58:51;;;;;;;29.60;27.20;;;;;;;1.05;100.00;99465.31;5004926;28;20058;-74
2023/12/22 01:01:18;;;;;;;30.83;28.33;;;;;;;1.06;100.00;99474.78;5015725;28;20306;-73
2023/12/22 01:03:45;;;;;;;29.88;27.38;;;;;;;0.76;100.00;99461.59;5009724;28;20058;-73
2023/12/22 01:06:12;;;;;;;34.65;32.03;;;;;;;1.16;100.00;99456.25;5009240;28;20054;-73
2023/12/22 01:08:39;;;;;;;33.63;31.05;;;;;;;0.97;100.00;99449.69;5025944;28;20719;-73
2023/12/22 01:11:06;;;;;;;30.13;27.48;;;;;;;0.89;100.00;99440.09;5016789;28;20506;-74
2023/12/22 01:13:33;;;;;;;27.83;25.63;;;;;;;0.88;100.00;99421.00;5019921;28;20037;-74
2023/12/22 01:16:02;;;;;;;30.10;27.70;;;;;;;0.75;100.00;99419.94;5010263;28;20053;-73
2023/12/22 01:18:29;;;;;;;29.83;27.42;;;;;;;0.72;100.00;99408.03;5017061;28;20829;-73
2023/12/22 01:20:56;;;;;;;28.70;26.40;;;;;;;0.57;100.00;99407.97;5011215;28;20087;-73
2023/12/22 01:23:29;;;;;;;27.05;24.83;;;;;;;0.56;100.00;99401.13;5012542;28;20080;-74
2023/12/22 01:25:56;;;;;;;28.35;26.05;;;;;;;1.07;100.00;99392.75;5010056;28;20639;-74
2023/12/22 01:28:24;;;;;;;28.73;26.33;;;;;;;0.63;100.00;99383.75;5010836;28;20049;-74
2023/12/22 01:30:50;;;;;;;29.95;27.45;;;;;;;0.73;100.00;99370.47;5010957;28;20049;-73
2023/12/22 01:33:19;;;;;;;28.85;26.55;;;;;;;0.91;100.00;99350.06;5008971;28;20089;-73
2023/12/22 01:35:46;;;;;;;28.67;26.30;;;;;;;0.54;100.00;99344.78;5006207;28;20520;-73
2023/12/22 01:38:15;;;;;;;26.40;24.30;;;;;;;0.53;100.00;99337.94;5017017;28;20858;-74
2023/12/22 01:40:42;;;;;;;27.38;25.15;;;;;;;0.81;100.00;99331.19;5004272;28;20334;-75
2023/12/22 01:43:09;;;;;;;27.38;25.10;;;;;;;0.86;100.00;99336.69;5007217;28;20050;-74
2023/12/22 01:45:36;;;;;;;27.00;24.70;;;;;;;0.68;100.00;99326.56;5008815;28;20427;-74
2023/12/22 01:48:04;;;;;;;27.35;25.05;;;;;;;0.64;100.00;99320.06;5021315;28;20459;-73
2023/12/22 01:50:32;;;;;;;26.85;24.65;;;;;;;0.60;100.00;99320.56;5013806;28;20058;-74
2023/12/22 01:52:59;;;;;;;33.10;30.60;;;;;;;0.48;100.00;99316.75;5012545;28;20045;-74
2023/12/22 01:55:26;;;;;;;27.13;24.60;;;;;;;0.75;100.00;99318.81;5015222;28;20065;-75
2023/12/22 01:57:53;;;;;;;27.98;25.77;;;;;;;0.56;100.00;99314.88;5013565;28;20502;-75
2023/12/22 02:00:21;;;;;;;27.90;25.60;;;;;;;0.80;100.00;99313.06;5002176;28;20058;-75
2023/12/22 02:02:48;;;;;;;26.83;24.58;;;;;;;1.26;100.00;99308.53;5010542;28;20145;-75
2023/12/22 02:05:15;;;;;;;28.23;25.92;;;;;;;1.45;100.00;99298.50;5019625;28;20053;-74
2023/12/22 02:07:44;;;;;;;30.25;27.73;;;;;;;1.33;100.00;99288.53;5006577;28;20406;-74
2023/12/22 02:10:11;;;;;;;27.17;24.98;;;;;;;1.06;100.00;99294.34;5015456;28;20444;-73
2023/12/22 02:12:38;;;;;;;33.20;29.60;;;;;;;1.50;100.00;99296.16;5000072;28;20455;-73
2023/12/22 02:15:06;;;;;;;29.65;27.25;;;;;;;1.64;100.00;99289.31;5012555;28;20041;-74
2023/12/22 02:17:44;;;;;;;31.40;28.90;;;;;;;1.59;100.00;99295.88;5010507;28;20049;-73
2023/12/22 02:20:11;;;;;;;29.45;27.05;;;;;;;1.63;100.00;99282.44;5019111;28;20049;-73
2023/12/22 02:22:51;;;;;;;30.10;27.70;;;;;;;1.46;100.00;99285.25;5018778;28;20046;-73
2023/12/22 02:25:18;;;;;;;30.20;27.70;;;;;;;1.64;100.00;99278.84;5017534;28;20246;-74
2023/12/22 02:27:48;;;;;;;28.05;25.75;;;;;;;1.62;100.00;99267.72;5008927;28;20050;-74
2023/12/22 02:30:22;;;;;;;29.52;27.10;;;;;;;1.20;100.00;99272.63;5012523;28;20061;-74
2023/12/22 02:32:52;;;;;;;30.83;28.27;;;;;;;1.40;100.00;99272.91;5013239;28;20594;-74
2023/12/22 02:35:24;;;;;;;33.45;30.02;;;;;;;1.69;100.00;99261.56;5007619;28;20054;-74
2023/12/22 02:37:55;;;;;;;30.27;27.90;;;;;;;1.48;100.00;99264.94;5019592;28;20503;-74
2023/12/22 02:40:24;;;;;;;36.08;33.45;;;;;;;1.55;100.00;99271.09;5010515;28;20046;-75
2023/12/22 02:42:52;;;;;;;38.88;35.85;;;;;;;1.61;100.00;99272.16;5009598;28;20057;-74
2023/12/22 02:45:20;;;;;;;35.40;32.70;;;;;;;1.44;100.00;99275.97;5013401;28;20443;-74
2023/12/22 02:47:48;;;;;;;30.60;28.02;;;;;;;1.21;100.00;99276.03;5016935;28;20050;-74
2023/12/22 02:50:17;;;;;;;32.22;29.63;;;;;;;1.21;100.00;99273.44;5018630;28;20057;-73
2023/12/22 02:52:48;;;;;;;31.27;28.88;;;;;;;1.35;100.00;99272.63;5011205;28;20518;-73
2023/12/22 02:55:16;;;;;;;28.48;26.38;;;;;;;1.07;100.00;99268.03;4998010;28;20053;-74
2023/12/22 02:57:43;;;;;;;29.20;27.00;;;;;;;0.93;100.00;99268.00;5005149;28;20065;-74
2023/12/22 03:00:11;;;;;;;30.58;28.08;;;;;;;1.25;100.00;99274.72;5011524;28;20054;-74
2023/12/22 03:02:38;;;;;;;32.60;29.92;;;;;;;1.05;100.00;99266.59;5018645;28;20049;-74
2023/12/22 03:05:06;;;;;;;33.72;31.13;;;;;;;1.01;100.00;99262.72;5015897;28;20041;-74
2023/12/22 03:07:39;;;;;;;30.38;27.98;;;;;;;0.96;100.00;99268.47;5010718;28;20057;-75
2023/12/22 03:10:07;;;;;;;31.60;29.20;;;;;;;0.86;100.00;99267.91;5009495;28;20046;-73
2023/12/22 03:12:35;;;;;;;29.48;27.08;;;;;;;0.75;100.00;99270.97;5004945;28;20050;-75
2023/12/22 03:15:02;;;;;;;32.28;29.77;;;;;;;0.82;100.00;99270.09;5012818;28;20057;-74
2023/12/22 03:17:29;;;;;;;37.47;34.15;;;;;;;0.90;100.00;99262.13;5011742;28;20145;-74
2023/12/22 03:19:56;;;;;;;38.97;35.55;;;;;;;0.84;100.00;99262.84;5011197;28;20045;-73
2023/12/22 03:22:23;;;;;;;35.88;32.95;;;;;;;1.02;100.00;99259.91;5013776;28;20058;-74
2023/12/22 03:24:55;;;;;;;36.90;33.90;;;;;;;1.01;100.00;99255.66;5008460;28;20054;-74
2023/12/22 03:27:22;;;;;;;40.50;37.08;;;;;;;1.06;100.00;99255.97;5014224;28;20053;-73
2023/12/22 03:29:50;;;;;;;32.17;29.48;;;;;;;1.04;100.00;99251.91;5020361;28;20149;-73
2023/12/22 03:32:17;;;;;;;35.80;32.90;;;;;;;1.34;100.00;99250.09;5016396;28;20061;-73
2023/12/22 03:34:43;;;;;;;33.80;31.00;;;;;;;1.47;100.00;99249.44;5009800;28;20073;-75
2023/12/22 03:37:10;;;;;;;32.35;29.75;;;;;;;1.41;100.00;99258.00;5010829;28;20054;-73
2023/12/22 03:39:37;;;;;;;33.10;30.30;;;;;;;1.38;100.00;99246.09;5026375;28;20796;-74
2023/12/22 03:42:05;;;;;;;35.08;32.17;;;;;;;1.27;100.00;99254.41;5008681;28;20056;-73
2023/12/22 03:44:32;;;;;;;36.58;33.45;;;;;;;1.21;100.00;99245.50;5013357;28;20050;-74
2023/12/22 03:47:01;;;;;;;31.45;28.85;;;;;;;1.20;100.00;99245.66;5021763;28;20434;-74
2023/12/22 03:49:27;;;;;;;29.63;27.17;;;;;;;1.31;100.00;99232.13;5008777;28;20539;-74
2023/12/22 03:51:54;;;;;;;34.38;31.58;;;;;;;1.64;100.00;99234.34;5002619;28;20053;-74
2023/12/22 03:54:21;;;;;;;33.63;30.88;;;;;;;1.77;100.00;99239.72;5005753;28;20055;-73
2023/12/22 03:56:48;;;;;;;31.20;28.60;;;;;;;1.82;100.00;99235.56;5016062;28;20088;-73
2023/12/22 03:59:18;;;;;;;33.72;31.13;;;;;;;2.00;100.00;99229.91;5002842;28;20174;-73
2023/12/22 04:01:45;;;;;;;34.67;32.10;;;;;;;2.02;100.00;99221.84;5016345;28;20561;-73
2023/12/22 04:04:13;;;;;;;31.48;28.92;;;;;;;1.92;100.00;99224.78;5010749;28;20068;-73
2023/12/22 04:06:41;;;;;;;29.85;27.40;;;;;;;1.82;100.00;99230.31;5017401;28;20057;-74
2023/12/22 04:09:08;;;;;;;32.70;30.10;;;;;;;1.75;100.00;99226.00;5016724;28;20056;-73
2023/12/22 04:11:36;;;;;;;29.02;26.65;;;;;;;1.46;100.00;99225.06;5019464;28;20049;-73
2023/12/22 04:14:03;;;;;;;28.95;25.95;;;;;;;1.53;100.00;99222.53;5015351;28;20077;-73
2023/12/22 04:16:30;;;;;;;34.47;31.75;;;;;;;1.56;100.00;99230.00;5013339;28;20057;-74
2023/12/22 04:18:59;;;;;;;33.60;31.00;;;;;;;1.73;100.00;99241.91;5010845;28;20050;-73
2023/12/22 04:21:27;;;;;;;30.42;27.92;;;;;;;1.65;100.00;99234.16;5012225;28;20046;-73
2023/12/22 04:23:54;;;;;;;30.63;28.13;;;;;;;1.66;100.00;99221.88;5007833;28;20042;-73
2023/12/22 04:26:21;;;;;;;26.25;23.95;;;;;;;1.85;100.00;99218.66;5007620;28;20049;-74
2023/12/22 04:28:48;;;;;;;32.78;30.17;;;;;;;1.92;100.00;99216.09;5006242;28;20079;-74
2023/12/22 04:31:15;;;;;;;26.05;23.85;;;;;;;1.95;100.00;99218.34;5020094;28;20056;-73
2023/12/22 04:33:42;;;;;;;25.55;23.55;;;;;;;1.86;100.00;99207.19;5006357;28;20064;-75
2023/12/22 04:36:17;;;;;;;26.25;24.05;;;;;;;1.79;100.00;99212.38;5006817;28;20050;-73
2023/12/22 04:38:45;;;;;;;28.08;25.65;;;;;;;1.60;100.00;99205.09;5011281;28;20439;-74
2023/12/22 04:41:12;;;;;;;32.35;30.05;;;;;;;1.73;100.00;99210.47;5014194;28;20507;-75
2023/12/22 04:43:39;;;;;;;26.92;24.92;;;;;;;1.87;100.00;99205.38;5008386;28;20046;-74
2023/12/22 04:46:08;;;;;;;26.88;24.98;;;;;;;1.78;100.00;99210.72;5017540;28;20048;-74
2023/12/22 04:48:35;;;;;;;26.25;24.25;;;;;;;1.80;100.00;99200.06;5012002;28;20050;-75
2023/12/22 04:51:08;;;;;;;30.20;28.10;;;;;;;2.06;100.00;99196.91;5013483;28;20054;-75
2023/12/22 04:53:35;;;;;;;26.23;23.92;;;;;;;1.73;100.00;99184.31;5005739;28;20508;-74
2023/12/22 04:56:04;;;;;;;26.30;24.40;;;;;;;1.64;100.00;99184.63;5009124;28;20045;-75
2023/12/22 04:58:31;;;;;;;24.52;22.63;;;;;;;1.62;100.00;99174.31;5015563;28;20046;-73
2023/12/22 05:00:59;;;;;;;24.58;22.80;;;;;;;1.72;100.00;99171.38;5001881;28;20550;-74
2023/12/22 05:03:27;;;;;;;24.98;23.13;;;;;;;1.58;100.00;99170.47;5007999;28;20684;-74
2023/12/22 05:05:54;;;;;;;30.20;28.30;;;;;;;1.58;100.00;99163.41;5016150;28;20049;-75
2023/12/22 05:08:21;;;;;;;29.27;26.48;;;;;;;3.36;100.00;99162.22;5014767;28;20059;-74
2023/12/22 05:10:48;;;;;;;31.95;30.15;;;;;;;2.03;100.00;99177.16;5008724;28;20049;-75
2023/12/22 05:13:16;;;;;;;23.65;21.85;;;;;;;1.66;100.00;99175.56;5006702;28;20567;-74
2023/12/22 05:15:43;;;;;;;26.42;24.42;;;;;;;1.44;100.00;99171.31;5006421;28;20061;-74
2023/12/22 05:18:10;;;;;;;29.67;27.27;;;;;;;1.46;100.00;99170.13;5007380;28;20435;-75
2023/12/22 05:20:37;;;;;;;32.10;28.83;;;;;;;1.46;100.00;99174.56;5009772;28;20046;-74
2023/12/22 05:23:04;;;;;;;32.05;29.52;;;;;;;1.31;100.00;99175.38;5012143;28;20050;-73
2023/12/22 05:25:31;;;;;;;30.40;28.00;;;;;;;1.17;100.00;99173.59;5008531;28;20049;-73
2023/12/22 05:27:58;;;;;;;27.83;25.42;;;;;;;1.30;100.00;99172.94;5005571;28;20114;-74
2023/12/22 05:30:26;;;;;;;27.40;25.10;;;;;;;1.54;100.00;99170.03;5010499;28;20045;-74
2023/12/22 05:32:54;;;;;;;27.55;25.50;;;;;;;1.28;100.00;99167.09;5010587;28;20053;-75
2023/12/22 05:35:21;;;;;;;28.08;25.88;;;;;;;1.23;100.00;99161.59;5021974;28;20071;-74
2023/12/22 05:37:48;;;;;;;28.20;25.83;;;;;;;1.11;100.00;99167.28;5012989;28;20054;-74
2023/12/22 05:40:15;;;;;;;30.83;27.95;;;;;;;1.38;100.00;99167.63;5006204;28;20559;-74
2023/12/22 05:42:42;;;;;;;27.90;25.83;;;;;;;1.79;100.00;99162.63;5002724;28;20808;-73
2023/12/22 05:45:11;;;;;;;30.27;28.17;;;;;;;1.88;100.00;99165.94;4996754;28;20061;-74
2023/12/22 05:47:39;;;;;;;34.55;31.95;;;;;;;2.08;100.00;99170.53;5008816;28;20053;-74
2023/12/22 05:50:08;;;;;;;31.15;28.75;;;;;;;1.95;100.00;99165.97;5002694;28;20050;-74
2023/12/22 05:52:37;;;;;;;31.10;28.75;;;;;;;1.71;100.00;99162.72;5006080;28;20050;-74
2023/12/22 05:55:04;;;;;;;30.20;28.27;;;;;;;1.82;100.00;99157.00;4999801;28;20046;-74
2023/12/22 05:57:31;;;;;;;28.80;26.70;;;;;;;1.91;100.00;99157.69;5007613;28;20073;-74
2023/12/22 05:59:58;;;;;;;28.15;26.23;;;;;;;1.75;100.00;99150.88;5000243;28;20077;-75
2023/12/22 06:02:26;;;;;;;28.17;25.98;;;;;;;1.67;100.00;99153.63;5016019;28;20061;-75
2023/12/22 06:04:54;;;;;;;27.35;25.42;;;;;;;1.44;100.00;99145.13;5001862;28;20050;-74
2023/12/22 06:07:21;;;;;;;27.70;25.80;;;;;;;1.35;100.00;99145.25;5012149;28;20420;-74
2023/12/22 06:09:49;;;;;;;28.05;25.98;;;;;;;1.52;100.00;99145.84;5000989;28;20086;-75
2023/12/22 06:12:15;;;;;;;29.60;27.40;;;;;;;1.45;100.00;99137.09;4995388;28;20148;-74
2023/12/22 06:14:42;;;;;;;30.20;28.00;;;;;;;1.51;100.00;99140.78;5010124;28;20438;-74
2023/12/22 06:17:09;;;;;;;32.25;30.05;;;;;;;1.55;100.00;99142.84;5009920;28;20832;-74
2023/12/22 06:19:36;;;;;;;28.35;26.42;;;;;;;1.55;100.00;99140.22;5011395;28;20050;-74
2023/12/22 06:22:05;;;;;;;33.20;30.70;;;;;;;1.69;100.00;99148.22;4993692;28;20061;-74
2023/12/22 06:24:32;;;;;;;30.13;28.13;;;;;;;1.55;100.00;99147.28;5018321;28;20137;-74
2023/12/22 06:26:59;;;;;;;32.72;30.52;;;;;;;1.44;100.00;99142.53;5009977;28;20442;-76
2023/12/22 06:29:27;;;;;;;29.98;27.83;;;;;;;1.56;100.00;99125.34;5012204;28;20142;-75
2023/12/22 06:31:55;;;;;;;31.00;28.83;;;;;;;1.43;100.00;99123.41;5012376;28;20950;-75
2023/12/22 06:34:21;;;;;;;32.03;29.65;;;;;;;1.49;100.00;99116.63;5014262;28;20132;-75
2023/12/22 06:36:49;;;;;;;35.75;33.35;;;;;;;1.82;100.00;99122.16;5014214;28;20049;-74
2023/12/22 06:39:19;;;;;;;31.40;29.27;;;;;;;1.74;100.00;99124.91;5018380;28;20097;-74
2023/12/22 06:41:46;;;;;;;30.00;27.90;;;;;;;1.72;100.00;99124.28;5008004;28;20053;-74
2023/12/22 06:44:13;;;;;;;29.30;27.30;;;;;;;1.98;100.00;99108.00;5011233;28;20060;-74
2023/12/22 06:46:40;;;;;;;30.25;28.15;;;;;;;1.83;100.00;99115.94;5003930;28;20507;-75
2023/12/22 06:49:06;;;;;;;29.35;27.35;;;;;;;2.04;100.00;99115.91;5006043;28;20046;-74
2023/12/22 06:51:34;;;;;;;31.95;29.70;;;;;;;2.16;100.00;99126.66;5002259;28;20057;-73
2023/12/22 06:54:02;;;;;;;30.27;28.27;;;;;;;2.45;100.00;99116.97;5002260;28;20472;-74
2023/12/22 06:56:31;;;;;;;31.00;28.75;;;;;;;2.70;100.00;99099.81;5005037;28;20038;-74
2023/12/22 06:58:59;;;;;;;29.80;27.80;;;;;;;2.84;100.00;99092.78;5003358;28;20085;-74
2023/12/22 07:01:29;;;;;;;26.90;25.10;;;;;;;3.26;100.00;99088.31;5003781;28;20069;-74
2023/12/22 07:03:57;;;;;;;27.55;25.65;;;;;;;3.12;100.00;99097.97;5004298;28;20053;-74
2023/12/22 07:06:26;;;;;;;28.25;26.35;;;;;;;3.64;100.00;99098.28;5008022;28;20698;-73
2023/12/22 07:09:29;;;;;;;27.90;26.10;;;;;;;4.26;100.00;99104.13;5003229;28;20053;-74
2023/12/22 07:11:58;;;;;;;25.15;23.45;;;;;;;4.85;100.00;99097.16;4993035;28;20042;-74
2023/12/22 07:14:25;;;;;;;22.85;21.35;;;;;;;4.97;100.00;99100.75;5003740;28;20050;-74
2023/12/22 07:16:52;;;;;;;24.23;22.50;;;;;;;4.93;100.00;99108.25;4992415;28;20092;-74
2023/12/22 07:19:19;;;;;;;22.55;21.15;;;;;;;5.08;100.00;99107.16;4995754;28;20065;-74
2023/12/22 07:21:46;;;;;;;21.13;19.83;;;;;;;5.19;100.00;99115.22;5011162;28;20439;-73
2023/12/22 07:24:13;;;;;;;23.55;22.05;;;;;;;5.27;100.00;99119.44;5011247;28;20218;-73
2023/12/22 07:26:39;;;;;;;24.08;22.58;;;;;;;5.56;100.00;99104.88;5009366;28;20534;-73
2023/12/22 07:29:08;;;;;;;20.83;19.52;;;;;;;5.38;100.00;99113.47;5007066;28;20046;-73
2023/12/22 07:31:35;;;;;;;21.52;20.23;;;;;;;5.51;100.00;99108.16;5021651;28;20123;-74
2023/12/22 07:34:02;;;;;;;23.63;22.23;;;;;;;5.48;100.00;99118.31;5011568;28;20737;-74
2023/12/22 07:36:29;;;;;;;22.48;21.17;;;;;;;5.50;100.00;99117.06;5002008;28;20057;-75
2023/12/22 07:38:57;;;;;;;21.60;20.20;;;;;;;5.61;100.00;99120.84;4998901;28;20105;-74
2023/12/22 07:41:24;;;;;;;23.15;21.65;;;;;;;5.73;100.00;99119.16;5000799;28;20499;-74
2023/12/22 07:43:57;;;;;;;22.85;21.45;;;;;;;5.79;100.00;99120.13;5000261;28;20058;-74
2023/12/22 07:46:30;;;;;;;22.40;21.00;;;;;;;5.74;100.00;99118.13;5000763;28;20050;-73
2023/12/22 07:48:57;;;;;;;22.52;21.13;;;;;;;5.75;100.00;99124.22;4999328;28;20049;-73
2023/12/22 07:51:24;;;;;;;23.42;21.92;;;;;;;5.87;100.00;99132.22;5000751;28;20046;-74
2023/12/22 07:53:51;;;;;;;25.60;24.00;;;;;;;5.91;100.00;99123.69;5000089;28;20518;-73
2023/12/22 07:56:20;;;;;;;22.67;21.27;;;;;;;6.10;100.00;99123.78;4999933;28;20054;-74
2023/12/22 07:58:47;;;;;;;23.83;22.23;;;;;;;5.98;100.00;99126.31;4995838;28;20053;-73
2023/12/22 08:01:15;;;;;;;26.63;25.08;;;;;;;5.92;100.00;99117.41;4987977;28;20697;-73
2023/12/22 08:03:43;;;;;;;23.50;22.10;;;;;;;6.08;100.00;99121.38;4991024;28;20069;-74
2023/12/22 08:06:10;;;;;;;21.90;20.50;;;;;;;6.06;100.00;99114.69;5001134;28;20065;-74
2023/12/22 08:08:38;;;;;;;22.65;21.33;;;;;;;6.06;100.00;99104.97;4999122;28;20049;-73
2023/12/22 08:11:04;;;;;;;23.48;21.98;;;;;;;6.19;100.00;99104.84;5003557;28;20061;-74
2023/12/22 08:13:31;;;;;;;21.90;20.40;;;;;;;6.30;100.00;99108.59;5006748;28;20057;-73
2023/12/22 08:15:59;;;;;;;23.00;21.40;;;;;;;6.49;100.00;99103.34;4992670;28;20046;-74
2023/12/22 08:18:26;;;;;;;21.73;20.27;;;;;;;6.63;100.00;99096.94;5005962;28;20058;-75
2023/12/22 08:20:54;;;;;;;21.50;20.20;;;;;;;7.07;100.00;99092.34;4991054;28;20054;-74
2023/12/22 08:23:21;;;;;;;19.50;18.30;;;;;;;7.11;100.00;99086.41;5008861;28;20060;-74
2023/12/22 08:25:49;;;;;;;20.02;18.83;;;;;;;7.16;100.00;99087.56;4993294;28;20061;-73
2023/12/22 08:28:16;;;;;;;19.80;18.60;;;;;;;7.18;100.00;99090.81;5002917;28;20049;-74
2023/12/22 08:30:43;;;;;;;20.50;19.30;;;;;;;7.20;100.00;99086.09;4998675;28;20050;-74
2023/12/22 08:33:10;;;;;;;19.25;18.13;;;;;;;7.36;100.00;99093.41;5006969;28;20507;-73
2023/12/22 08:35:37;;;;;;;20.50;19.30;;;;;;;7.65;100.00;99080.38;5006465;28;20042;-74
2023/12/22 08:38:06;;;;;;;21.73;20.42;;;;;;;8.05;100.00;99067.34;5008221;28;20053;-74
2023/12/22 08:40:33;;;;;;;20.08;18.88;;;;;;;8.28;100.00;99053.31;4996973;28;20453;-74
2023/12/22 08:43:00;;;;;;;19.85;18.65;;;;;;;8.40;100.00;99050.69;5005337;28;20125;-74
2023/12/22 08:45:33;;;;;;;20.50;19.10;;;;;;;8.38;100.00;99045.66;5010002;28;20428;-74
2023/12/22 08:48:00;;;;;;;20.77;19.58;;;;;;;8.27;100.00;99041.94;5002349;28;20046;-75
2023/12/22 08:50:27;;;;;;;21.20;20.00;;;;;;;8.33;100.00;99049.97;4999342;28;20797;-75
2023/12/22 08:52:54;;;;;;;20.90;19.80;;;;;;;8.51;100.00;99049.06;4999112;28;20046;-74
2023/12/22 08:55:22;;;;;;;20.00;18.80;;;;;;;8.66;100.00;99039.59;5004095;28;20050;-74
2023/12/22 08:57:55;;;;;;;21.17;19.92;;;;;;;8.70;100.00;99030.13;4992878;28;20046;-74
2023/12/22 09:00:22;;;;;;;20.40;19.20;;;;;;;8.73;100.00;99020.13;5003481;28;20062;-74
2023/12/22 09:02:49;;;;;;;19.35;18.15;;;;;;;8.93;100.00;99031.91;5009274;28;20056;-74
2023/12/22 09:05:17;;;;;;;20.20;19.00;;;;;;;9.14;100.00;99022.50;5006299;28;20050;-73
2023/12/22 09:07:45;;;;;;;21.48;20.17;;;;;;;9.47;100.00;99028.09;5009394;28;20089;-74
2023/12/22 09:10:12;;;;;;;20.52;19.23;;;;;;;9.66;100.00;99031.34;5006326;28;20058;-74
2023/12/22 09:12:42;;;;;;;19.70;18.40;;;;;;;9.66;100.00;99044.59;5009269;28;20060;-74
2023/12/22 09:15:09;;;;;;;19.15;17.95;;;;;;;9.85;100.00;99027.38;5002119;28;20135;-75
2023/12/22 09:17:37;;;;;;;19.80;18.60;;;;;;;9.73;100.00;99027.47;4993950;28;20491;-75
2023/12/22 09:20:05;;;;;;;21.70;20.40;;;;;;;9.45;100.00;99036.28;5001966;28;20050;-75
2023/12/22 09:22:32;;;;;;;18.77;17.48;;;;;;;9.10;100.00;99031.16;4991677;28;20065;-74
2023/12/22 09:24:59;;;;;;;18.30;17.08;;;;;;;9.22;100.00;99039.06;4990549;28;20435;-75
2023/12/22 09:27:30;;;;;;;21.70;20.30;;;;;;;9.13;100.00;99039.44;4991208;28;20054;-75
2023/12/22 09:29:58;;;;;;;23.40;22.00;;;;;;;9.38;100.00;99047.06;5008257;28;20392;-74
2023/12/22 09:32:25;;;;;;;20.27;19.08;;;;;;;9.30;100.00;99050.06;4989979;28;20499;-75
2023/12/22 09:34:52;;;;;;;19.35;18.15;;;;;;;9.70;100.00;99051.81;5005799;28;20050;-75
2023/12/22 09:37:18;;;;;;;18.98;17.67;;;;;;;9.39;100.00;99072.50;5000629;28;20065;-75
2023/12/22 09:39:46;;;;;;;19.80;18.55;;;;;;;9.13;100.00;99067.75;4990109;28;20065;-75
2023/12/22 09:42:16;;;;;;;20.15;18.85;;;;;;;9.49;100.00;99063.91;5002809;28;20054;-75
2023/12/22 09:44:44;;;;;;;19.48;18.17;;;;;;;9.38;100.00;99073.56;5001944;28;20062;-75
2023/12/22 09:47:14;;;;;;;19.10;17.90;;;;;;;9.73;100.00;99066.44;5005225;28;20093;-75
2023/12/22 09:49:42;;;;;;;19.17;17.88;;;;;;;9.91;100.00;99068.84;4999250;28;20716;-75
2023/12/22 09:52:09;;;;;;;19.05;17.75;;;;;;;9.85;100.00;99073.25;5004610;28;20548;-75
2023/12/22 09:54:43;;;;;;;19.83;18.50;;;;;;;9.62;100.00;99074.22;5005844;28;20046;-75
2023/12/22 09:57:11;;;;;;;19.73;18.42;;;;;;;8.85;100.00;99072.00;4998374;28;20050;-75
2023/12/22 09:59:39;;;;;;;19.63;18.33;;;;;;;8.77;100.00;99071.56;4992466;28;20061;-75
2023/12/22 10:02:09;;;;;;;19.83;18.52;;;;;;;8.51;100.00;99072.88;4994046;28;20062;-74
2023/12/22 10:04:38;;;;;;;21.45;19.95;;;;;;;7.99;100.00;99076.19;4989191;28;20081;-75
2023/12/22 10:07:07;;;;;;;20.67;19.17;;;;;;;8.20;100.00;99073.00;5003962;28;20053;-76
2023/12/22 10:09:36;;;;;;;21.00;19.50;;;;;;;8.08;100.00;99074.00;4994010;28;20489;-75
2023/12/22 10:12:05;;;;;;;20.55;19.15;;;;;;;8.40;100.00;99067.34;5001428;28;20045;-75
2023/12/22 10:14:35;;;;;;;20.58;19.17;;;;;;;8.55;100.00;99044.91;4989380;28;20051;-75
2023/12/22 10:17:02;;;;;;;20.30;18.90;;;;;;;8.91;100.00;99052.53;5005876;28;20050;-74
2023/12/22 10:19:29;;;;;;;20.17;18.77;;;;;;;8.86;100.00;99052.41;5008167;28;20065;-73
2023/12/22 10:21:57;;;;;;;19.67;18.27;;;;;;;9.47;100.00;99049.28;5004809;28;20427;-74
2023/12/22 10:24:42;;;;;;;20.23;18.83;;;;;;;9.75;100.00;99067.81;5003647;28;20046;-74
2023/12/22 10:27:09;;;;;;;22.48;20.88;;;;;;;9.59;100.00;99057.97;5001074;28;20049;-73
2023/12/22 10:29:36;;;;;;;19.40;18.00;;;;;;;9.54;100.00;99060.56;5000240;28;20050;-72
2023/12/22 10:32:05;;;;;;;19.35;17.95;;;;;;;9.44;100.00;99042.66;4998544;28;20061;-75
2023/12/22 10:34:34;;;;;;;19.65;17.95;;;;;;;10.13;100.00;99031.78;4989499;28;20054;-73
2023/12/22 10:37:03;;;;;;;20.00;18.50;;;;;;;9.88;100.00;99008.34;5000749;28;20049;-73
2023/12/22 10:39:30;;;;;;;19.05;17.75;;;;;;;9.88;100.00;99037.50;5004840;28;20057;-73
2023/12/22 10:41:58;;;;;;;19.95;18.55;;;;;;;10.16;100.00;99023.31;5010452;28;20439;-75
2023/12/22 10:44:26;;;;;;;21.95;20.35;;;;;;;9.23;100.00;99038.00;5006727;28;20050;-74
2023/12/22 10:46:53;;;;;;;20.85;19.45;;;;;;;8.80;100.00;99031.38;5008728;28;20058;-74
2023/12/22 10:49:20;;;;;;;19.38;17.98;;;;;;;9.09;100.00;99032.22;5008167;28;20072;-74
2023/12/22 10:51:47;;;;;;;20.30;18.90;;;;;;;9.19;100.00;99037.69;5002662;28;20424;-75
2023/12/22 10:54:15;;;;;;;21.35;19.85;;;;;;;9.04;100.00;99029.47;5015330;28;20145;-74
2023/12/22 10:56:42;;;;;;;23.40;21.60;;;;;;;9.12;100.00;99018.50;5016491;28;20431;-73
2023/12/22 10:59:11;;;;;;;19.27;17.92;;;;;;;9.66;100.00;99010.13;5008506;28;20519;-74
2023/12/22 11:01:40;;;;;;;18.85;17.55;;;;;;;9.32;100.00;99007.44;5003225;28;20067;-73
2023/12/22 11:04:10;;;;;;;19.65;18.30;;;;;;;8.92;100.00;98998.53;5010046;28;20049;-74
2023/12/22 11:06:38;;;;;;;20.80;19.20;;;;;;;8.57;100.00;98992.56;5008096;28;20057;-73
2023/12/22 11:09:07;;;;;;;21.30;19.80;;;;;;;8.18;100.00;98987.78;5009195;28;20053;-74
2023/12/22 11:11:39;;;;;;;21.17;19.77;;;;;;;7.97;100.00;98997.09;5007827;28;20050;-74
2023/12/22 11:14:09;;;;;;;21.38;19.98;;;;;;;7.89;100.00;99008.00;5007361;28;20416;-74
2023/12/22 11:16:37;;;;;;;23.40;21.80;;;;;;;7.89;100.00;99007.22;5008723;28;20049;-74
2023/12/22 11:19:05;;;;;;;25.90;23.40;;;;;;;7.85;100.00;98998.13;5005892;28;20050;-74
2023/12/22 11:21:32;;;;;;;23.80;22.20;;;;;;;7.99;100.00;99012.75;5011645;28;20077;-74